Time;durP1;ratioP1;P1;durP2;ratioP2;P2;SDS_P1;SDS_P2;PMS_P1;PMS_P2;Temp;Humidity;BMP_temperature;BMP_pressure;BME280_temperature;BME280_humidity;BME280_pressure;Samples;Min_cycle;Max_cycle;Signal;HPM_P1;HPM_P2
2021/07/15 00:00:56;;;;;;;9.52;6.38;;;26.00;58.20;;;;;;5034729;28;20373;-67
2021/07/15 00:03:27;;;;;;;13.02;6.05;;;26.00;58.50;;;;;;5034801;28;20112;-67
2021/07/15 00:05:54;;;;;;;7.82;5.70;;;25.90;58.70;;;;;;5015050;28;20527;-67
2021/07/15 00:08:23;;;;;;;6.35;5.15;;;25.90;58.70;;;;;;5015214;28;20022;-67
2021/07/15 00:10:54;;;;;;;6.95;5.30;;;25.90;59.00;;;;;;5016519;28;20396;-67
2021/07/15 00:13:21;;;;;;;8.02;5.78;;;25.90;58.90;;;;;;5034593;28;20022;-67
2021/07/15 00:15:52;;;;;;;10.50;6.80;;;25.80;58.90;;;;;;5034675;28;20459;-67
2021/07/15 00:18:26;;;;;;;8.88;6.38;;;25.80;59.00;;;;;;5033168;28;20111;-67
2021/07/15 00:20:53;;;;;;;6.82;5.40;;;25.80;58.90;;;;;;5034127;28;20025;-67
2021/07/15 00:23:19;;;;;;;7.03;5.22;;;25.70;59.10;;;;;;5033996;28;20029;-67
2021/07/15 00:25:46;;;;;;;8.98;5.90;;;25.70;59.20;;;;;;5033168;28;20022;-68
2021/07/15 00:28:13;;;;;;;8.82;6.32;;;25.70;59.30;;;;;;5031016;28;20037;-67
2021/07/15 00:30:39;;;;;;;8.00;6.20;;;25.70;59.20;;;;;;5034801;28;20029;-67
2021/07/15 00:33:06;;;;;;;8.15;5.35;;;25.70;59.60;;;;;;5034235;28;20033;-67
2021/07/15 00:35:32;;;;;;;8.52;6.35;;;25.70;59.50;;;;;;5034233;28;20022;-67
2021/07/15 00:37:59;;;;;;;8.52;6.93;;;25.70;59.60;;;;;;5017732;28;20378;-67
2021/07/15 00:40:24;;;;;;;8.98;6.20;;;25.70;59.60;;;;;;5025244;28;20549;-67
2021/07/15 00:42:50;;;;;;;7.50;5.90;;;25.70;59.90;;;;;;5033911;28;20167;-67
2021/07/15 00:45:18;;;;;;;6.57;5.35;;;25.60;59.90;;;;;;5031724;28;20036;-67
2021/07/15 00:47:44;;;;;;;8.93;5.07;;;25.60;60.00;;;;;;5034353;28;20037;-67
2021/07/15 00:50:10;;;;;;;13.82;9.25;;;25.60;60.10;;;;;;5033097;28;20339;-67
2021/07/15 00:52:39;;;;;;;10.27;6.65;;;25.60;60.30;;;;;;5033944;28;20104;-67
2021/07/15 00:55:07;;;;;;;7.95;6.38;;;25.50;60.50;;;;;;5033548;28;20029;-67
2021/07/15 00:57:33;;;;;;;7.78;5.63;;;25.50;60.50;;;;;;5033834;28;20028;-67
2021/07/15 00:59:59;;;;;;;11.90;6.25;;;25.50;60.60;;;;;;5033790;28;20037;-67
2021/07/15 01:02:25;;;;;;;7.93;5.60;;;25.50;60.50;;;;;;5031307;28;20029;-67
2021/07/15 01:04:51;;;;;;;7.38;5.68;;;25.40;60.50;;;;;;5033434;28;20021;-67
2021/07/15 01:07:16;;;;;;;7.40;5.40;;;25.40;60.60;;;;;;5032606;28;20440;-67
2021/07/15 01:09:43;;;;;;;7.20;5.60;;;25.40;60.70;;;;;;5033687;28;20025;-67
2021/07/15 01:12:27;;;;;;;7.53;5.18;;;25.40;61.10;;;;;;5033604;28;20104;-67
2021/07/15 01:15:12;;;;;;;7.30;5.70;;;25.40;61.10;;;;;;5033744;28;20025;-67
2021/07/15 01:17:47;;;;;;;9.63;6.75;;;25.30;61.30;;;;;;5032240;28;20036;-67
2021/07/15 01:20:42;;;;;;;9.63;6.25;;;25.30;61.20;;;;;;5032004;28;20405;-67
2021/07/15 01:23:41;;;;;;;8.13;5.80;;;25.30;61.40;;;;;;5013793;28;20041;-67
2021/07/15 01:26:43;;;;;;;6.18;4.82;;;25.30;61.30;;;;;;5027985;28;20458;-67
2021/07/15 01:29:30;;;;;;;9.50;6.30;;;25.20;61.30;;;;;;5028874;28;20037;-67
2021/07/15 01:32:01;;;;;;;8.43;6.47;;;25.20;61.20;;;;;;5013658;28;20482;-67
2021/07/15 01:34:28;;;;;;;9.30;5.93;;;25.20;61.20;;;;;;5013174;28;20018;-67
2021/07/15 01:36:55;;;;;;;7.43;5.60;;;25.20;61.20;;;;;;5023307;28;20036;-67
2021/07/15 01:39:26;;;;;;;6.93;5.43;;;25.20;61.40;;;;;;5033236;28;20026;-67
2021/07/15 01:41:55;;;;;;;5.32;4.82;;;25.20;61.20;;;;;;5033128;28;20022;-67
2021/07/15 01:44:27;;;;;;;8.85;4.57;;;25.20;60.80;;;;;;5033105;28;20440;-67
2021/07/15 01:46:53;;;;;;;7.15;4.35;;;25.20;60.40;;;;;;5033586;28;20018;-67
2021/07/15 01:49:20;;;;;;;6.22;4.53;;;25.20;60.20;;;;;;5033036;28;20036;-67
2021/07/15 01:51:46;;;;;;;6.35;4.63;;;25.20;60.00;;;;;;5033018;28;20037;-67
2021/07/15 01:54:13;;;;;;;5.85;4.70;;;25.10;59.90;;;;;;5032756;28;20052;-67
2021/07/15 01:56:42;;;;;;;5.68;4.57;;;25.20;59.90;;;;;;5019916;28;20029;-67
2021/07/15 01:59:15;;;;;;;8.93;4.40;;;25.20;59.80;;;;;;5013063;28;20029;-67
2021/07/15 02:01:42;;;;;;;5.97;4.32;;;25.20;59.60;;;;;;5013688;28;20033;-67
2021/07/15 02:04:08;;;;;;;5.63;4.60;;;25.20;59.70;;;;;;5032918;28;20390;-67
2021/07/15 02:06:36;;;;;;;8.23;4.40;;;25.10;59.70;;;;;;5032848;28;20029;-68
2021/07/15 02:09:06;;;;;;;8.02;4.53;;;25.10;59.80;;;;;;5032768;28;20030;-68
2021/07/15 02:11:33;;;;;;;6.25;4.75;;;25.20;59.80;;;;;;5032771;28;20501;-67
2021/07/15 02:14:12;;;;;;;5.60;4.78;;;25.20;59.70;;;;;;5032831;28;20101;-67
2021/07/15 02:16:45;;;;;;;6.20;4.70;;;25.10;59.50;;;;;;5032826;28;20022;-67
2021/07/15 02:19:12;;;;;;;6.63;4.63;;;25.10;59.60;;;;;;5032531;28;20522;-67
2021/07/15 02:21:39;;;;;;;7.35;4.65;;;25.20;59.80;;;;;;5032590;28;20029;-67
2021/07/15 02:24:07;;;;;;;8.70;4.97;;;25.20;59.70;;;;;;5032703;28;20100;-67
2021/07/15 02:26:35;;;;;;;6.90;4.55;;;25.20;59.70;;;;;;5030308;28;20029;-67
2021/07/15 02:29:00;;;;;;;6.97;4.70;;;25.20;60.60;;;;;;5030537;28;20029;-67
2021/07/15 02:31:58;;;;;;;6.90;4.60;;;25.20;60.00;;;;;;5032379;28;20428;-67
2021/07/15 02:34:28;;;;;;;7.20;4.82;;;25.20;60.00;;;;;;5031100;28;20121;-67
2021/07/15 02:36:58;;;;;;;8.07;5.38;;;25.20;60.20;;;;;;5030474;28;20029;-68
2021/07/15 02:39:24;;;;;;;9.70;5.35;;;25.20;60.10;;;;;;5032695;28;20039;-68
2021/07/15 02:41:49;;;;;;;9.48;5.00;;;25.30;60.40;;;;;;5038230;28;20112;-68
2021/07/15 02:44:15;;;;;;;7.75;4.95;;;25.30;60.50;;;;;;5030268;28;20033;-68
2021/07/15 02:46:41;;;;;;;11.02;5.40;;;25.30;60.60;;;;;;5022508;28;20116;-67
2021/07/15 02:49:07;;;;;;;6.57;5.13;;;25.40;60.80;;;;;;5042428;28;20053;-68
2021/07/15 02:51:33;;;;;;;8.60;5.13;;;25.40;60.90;;;;;;5049193;28;20056;-67
2021/07/15 02:54:00;;;;;;;7.57;5.80;;;25.40;61.10;;;;;;5052557;28;20025;-67
2021/07/15 02:56:52;;;;;;;8.43;5.47;;;25.50;60.90;;;;;;5037483;28;20021;-67
2021/07/15 02:59:34;;;;;;;9.70;5.25;;;25.50;61.00;;;;;;5033350;28;20087;-68
2021/07/15 03:02:15;;;;;;;8.82;5.18;;;25.50;61.10;;;;;;5041362;28;20381;-67
2021/07/15 03:05:09;;;;;;;7.80;5.32;;;25.50;61.10;;;;;;5035396;28;20021;-67
2021/07/15 03:07:45;;;;;;;6.15;4.85;;;25.60;61.00;;;;;;5034976;28;20036;-67
2021/07/15 03:10:13;;;;;;;8.40;5.22;;;25.70;61.20;;;;;;5024386;28;20013;-67
2021/07/15 03:12:41;;;;;;;9.10;5.18;;;25.70;61.10;;;;;;5050744;28;20075;-67
2021/07/15 03:15:07;;;;;;;7.15;4.97;;;25.70;61.20;;;;;;5043326;28;20032;-67
2021/07/15 03:17:38;;;;;;;8.05;5.03;;;25.80;61.20;;;;;;5051223;28;20032;-67
2021/07/15 03:20:07;;;;;;;7.13;5.05;;;25.80;61.10;;;;;;5038123;28;20484;-67
2021/07/15 03:22:37;;;;;;;6.18;5.15;;;25.90;61.30;;;;;;5043855;28;20029;-67
2021/07/15 03:25:07;;;;;;;8.27;5.43;;;25.90;61.30;;;;;;5037617;28;20022;-67
2021/07/15 03:27:38;;;;;;;8.70;5.20;;;26.00;61.20;;;;;;5050660;28;20022;-67
2021/07/15 03:30:08;;;;;;;10.25;5.93;;;26.10;61.00;;;;;;5022370;28;20035;-67
2021/07/15 03:32:36;;;;;;;5.68;4.60;;;26.20;61.30;;;;;;5051178;28;20025;-67
2021/07/15 03:35:04;;;;;;;9.35;5.38;;;26.30;61.60;;;;;;5043178;28;20052;-67
2021/07/15 03:37:30;;;;;;;9.80;5.35;;;26.50;61.70;;;;;;5037644;28;20473;-68
2021/07/15 03:39:56;;;;;;;7.03;5.00;;;26.70;61.50;;;;;;5051384;28;20061;-68
2021/07/15 03:42:22;;;;;;;6.63;5.03;;;27.00;62.00;;;;;;5040799;28;20465;-68
2021/07/15 03:44:49;;;;;;;9.95;4.97;;;27.30;61.00;;;;;;5044988;28;20563;-68
2021/07/15 03:47:16;;;;;;;9.25;4.88;;;27.70;60.20;;;;;;5043433;28;20021;-68
2021/07/15 03:49:45;;;;;;;6.03;4.63;;;28.20;59.80;;;;;;5036777;28;20021;-68
2021/07/15 03:52:13;;;;;;;8.57;4.97;;;28.70;59.60;;;;;;5043973;28;20458;-68
2021/07/15 03:54:41;;;;;;;6.78;4.63;;;29.40;58.00;;;;;;5036255;28;20021;-68
2021/07/15 03:57:12;;;;;;;9.07;5.00;;;30.20;56.90;;;;;;5046896;28;20033;-68
2021/07/15 03:59:45;;;;;;;6.65;4.70;;;31.10;55.70;;;;;;5037115;28;20428;-68
2021/07/15 04:02:14;;;;;;;7.93;4.20;;;32.10;54.30;;;;;;5019899;28;20114;-68
2021/07/15 04:04:44;;;;;;;8.35;4.53;;;33.10;52.70;;;;;;5042804;28;20025;-68
2021/07/15 04:07:10;;;;;;;6.85;4.35;;;34.00;50.90;;;;;;5040789;28;20026;-68
2021/07/15 04:09:37;;;;;;;6.35;4.35;;;34.80;49.50;;;;;;5042344;28;20022;-68
2021/07/15 04:12:05;;;;;;;11.05;4.63;;;35.70;48.30;;;;;;5050735;28;20116;-68
2021/07/15 04:14:45;;;;;;;6.38;4.68;;;36.40;46.80;;;;;;5041463;28;20033;-68
2021/07/15 04:17:14;;;;;;;5.72;4.35;;;37.20;45.80;;;;;;5040446;28;20029;-68
2021/07/15 04:19:41;;;;;;;8.43;4.65;;;37.80;44.40;;;;;;5033685;28;20045;-69
2021/07/15 04:22:10;;;;;;;5.68;4.07;;;38.50;43.70;;;;;;5038676;28;20025;-67
2021/07/15 04:24:38;;;;;;;8.05;4.05;;;39.10;42.90;;;;;;5033542;28;20044;-68
2021/07/15 04:27:09;;;;;;;7.75;4.25;;;39.60;42.40;;;;;;5033693;28;20116;-68
2021/07/15 04:29:36;;;;;;;7.32;3.88;;;40.20;40.90;;;;;;5030051;28;20025;-68
2021/07/15 04:32:11;;;;;;;5.03;3.65;;;40.70;40.50;;;;;;5041917;28;20064;-69
2021/07/15 04:34:39;;;;;;;7.40;4.13;;;41.20;40.10;;;;;;5049039;28;20025;-69
2021/07/15 04:37:05;;;;;;;4.78;3.80;;;41.60;39.40;;;;;;5028797;28;20048;-67
2021/07/15 04:39:32;;;;;;;8.32;3.75;;;41.90;38.50;;;;;;5048860;28;20021;-67
2021/07/15 04:42:01;;;;;;;7.20;3.80;;;42.20;38.10;;;;;;5050088;28;20051;-67
2021/07/15 04:44:32;;;;;;;6.07;3.45;;;42.60;37.60;;;;;;5040300;28;20025;-67
2021/07/15 04:47:00;;;;;;;7.32;3.90;;;42.80;36.90;;;;;;5030958;28;20037;-67
2021/07/15 04:49:26;;;;;;;6.25;3.72;;;43.10;36.40;;;;;;5031350;28;20025;-67
2021/07/15 04:51:53;;;;;;;5.50;4.10;;;43.30;36.20;;;;;;5027735;28;20040;-67
2021/07/15 04:54:21;;;;;;;6.38;3.88;;;43.60;36.10;;;;;;5032514;28;20514;-67
2021/07/15 04:56:47;;;;;;;6.97;3.70;;;43.90;36.10;;;;;;5040418;28;20037;-69
2021/07/15 04:59:14;;;;;;;6.20;3.88;;;44.10;35.60;;;;;;5026586;28;20050;-69
2021/07/15 05:01:40;;;;;;;5.68;4.07;;;44.40;35.00;;;;;;5030163;28;20029;-67
2021/07/15 05:04:05;;;;;;;6.53;3.90;;;44.60;34.50;;;;;;5023607;28;20047;-67
2021/07/15 05:06:31;;;;;;;9.18;3.75;;;44.70;34.00;;;;;;5035058;28;20025;-67
2021/07/15 05:08:57;;;;;;;4.75;3.60;;;44.90;33.90;;;;;;5017554;28;20033;-67
2021/07/15 05:11:22;;;;;;;6.22;3.63;;;45.00;34.10;;;;;;5028777;28;20046;-67
2021/07/15 05:13:49;;;;;;;7.22;3.80;;;45.20;34.20;;;;;;5033331;28;20029;-67
2021/07/15 05:16:14;;;;;;;5.50;3.47;;;45.40;34.00;;;;;;5023767;28;20025;-67
2021/07/15 05:18:40;;;;;;;4.10;3.67;;;45.60;33.80;;;;;;5026091;28;20049;-67
2021/07/15 05:21:06;;;;;;;6.20;4.30;;;45.70;33.90;;;;;;5028406;28;20526;-67
2021/07/15 05:23:32;;;;;;;4.90;3.85;;;45.90;33.30;;;;;;5028120;28;20045;-67
2021/07/15 05:25:57;;;;;;;7.05;3.50;;;45.90;33.30;;;;;;5031285;28;20519;-67
2021/07/15 05:28:25;;;;;;;6.60;3.45;;;45.80;33.20;;;;;;5019063;28;20037;-67
2021/07/15 05:30:51;;;;;;;4.60;3.40;;;45.60;33.00;;;;;;5028304;28;20033;-67
2021/07/15 05:33:17;;;;;;;5.95;3.47;;;45.20;33.40;;;;;;5028156;28;20025;-66
2021/07/15 05:35:44;;;;;;;5.25;3.13;;;44.50;33.80;;;;;;5026764;28;20031;-67
2021/07/15 05:38:10;;;;;;;7.22;4.28;;;43.60;34.10;;;;;;5020167;28;20029;-67
2021/07/15 05:40:36;;;;;;;9.18;4.38;;;42.80;34.60;;;;;;5023683;28;20512;-69
2021/07/15 05:43:02;;;;;;;6.93;3.95;;;41.90;35.30;;;;;;5025478;28;20029;-67
2021/07/15 05:45:28;;;;;;;7.60;4.30;;;41.10;35.90;;;;;;5020774;28;20490;-69
2021/07/15 05:47:53;;;;;;;7.93;4.40;;;40.40;36.80;;;;;;5021750;28;20119;-66
2021/07/15 05:50:19;;;;;;;7.90;3.90;;;39.60;37.40;;;;;;5023508;28;20163;-67
2021/07/15 05:52:45;;;;;;;6.97;4.28;;;39.00;38.20;;;;;;5019097;28;20030;-66
2021/07/15 05:55:11;;;;;;;6.15;3.75;;;38.50;39.20;;;;;;5015775;28;20034;-69
2021/07/15 05:57:37;;;;;;;7.78;3.95;;;37.90;38.90;;;;;;5016804;28;20122;-68
2021/07/15 06:00:06;;;;;;;4.38;3.88;;;37.50;40.00;;;;;;5009452;28;20057;-69
2021/07/15 06:02:32;;;;;;;4.85;3.55;;;37.10;40.70;;;;;;5018464;28;20065;-65
2021/07/15 06:04:58;;;;;;;5.80;4.13;;;36.70;41.20;;;;;;5021836;28;20056;-67
2021/07/15 06:07:23;;;;;;;8.05;4.47;;;36.30;41.60;;;;;;5014693;28;20549;-67
2021/07/15 06:09:49;;;;;;;4.95;4.05;;;36.00;42.00;;;;;;5015535;28;20033;-69
2021/07/15 06:12:15;;;;;;;8.35;3.92;;;35.60;42.60;;;;;;5011361;28;21679;-64
2021/07/15 06:14:40;;;;;;;7.63;4.00;;;35.30;42.90;;;;;;5007110;28;20033;-67
2021/07/15 06:17:06;;;;;;;5.60;4.45;;;35.00;43.50;;;;;;5009196;28;20501;-64
2021/07/15 06:19:32;;;;;;;5.40;3.70;;;34.70;44.00;;;;;;5009467;28;20929;-64
2021/07/15 06:21:57;;;;;;;6.35;4.45;;;34.50;44.40;;;;;;5016662;28;20047;-67
2021/07/15 06:24:23;;;;;;;6.45;4.40;;;34.40;44.60;;;;;;5017663;28;20478;-64
2021/07/15 06:26:49;;;;;;;5.80;4.47;;;34.20;45.10;;;;;;5022204;28;20468;-65
2021/07/15 06:29:15;;;;;;;6.22;3.83;;;34.00;45.50;;;;;;5025050;28;20036;-65
2021/07/15 06:31:42;;;;;;;6.32;4.28;;;33.90;45.50;;;;;;5017568;28;20052;-65
2021/07/15 06:34:08;;;;;;;9.00;4.57;;;33.80;45.80;;;;;;5018284;28;20044;-66
2021/07/15 06:36:34;;;;;;;8.18;4.20;;;33.60;46.00;;;;;;5021799;28;20045;-64
2021/07/15 06:39:00;;;;;;;6.05;4.30;;;33.50;46.50;;;;;;5010692;28;20034;-64
2021/07/15 06:41:26;;;;;;;9.10;5.07;;;33.40;46.90;;;;;;5011064;28;20072;-65
2021/07/15 06:43:52;;;;;;;7.18;5.18;;;33.30;47.10;;;;;;5018985;28;20052;-65
2021/07/15 06:46:20;;;;;;;9.68;5.43;;;33.30;47.70;;;;;;5017453;28;20026;-65
2021/07/15 06:48:45;;;;;;;7.30;5.35;;;33.20;47.70;;;;;;5022513;28;20382;-65
2021/07/15 06:51:12;;;;;;;7.03;5.10;;;33.20;47.60;;;;;;5010915;28;20037;-65
2021/07/15 06:53:37;;;;;;;9.02;5.13;;;33.10;47.40;;;;;;5006849;28;20030;-65
2021/07/15 06:56:03;;;;;;;11.20;5.78;;;33.10;48.00;;;;;;5018191;28;20481;-67
2021/07/15 06:58:29;;;;;;;9.80;6.43;;;33.00;47.90;;;;;;5015679;28;20057;-66
2021/07/15 07:00:56;;;;;;;11.32;7.45;;;33.00;47.70;;;;;;5010316;28;23437;-66
2021/07/15 07:03:22;;;;;;;15.85;10.35;;;32.90;47.80;;;;;;5005810;28;20040;-67
2021/07/15 07:05:53;;;;;;;16.25;9.85;;;32.90;48.30;;;;;;5001771;28;20030;-66
2021/07/15 07:08:19;;;;;;;15.85;8.63;;;32.80;48.40;;;;;;5010372;28;20036;-64
2021/07/15 07:10:44;;;;;;;19.52;9.35;;;32.80;49.00;;;;;;5014486;28;20033;-65
2021/07/15 07:13:10;;;;;;;13.35;8.05;;;32.80;48.80;;;;;;5009855;28;20052;-65
2021/07/15 07:15:35;;;;;;;22.85;12.38;;;32.70;48.80;;;;;;5007490;28;20042;-64
2021/07/15 07:18:01;;;;;;;23.73;13.00;;;32.70;49.60;;;;;;5011494;28;20108;-65
2021/07/15 07:20:27;;;;;;;29.38;13.68;;;32.70;49.70;;;;;;5016444;28;21447;-65
2021/07/15 07:22:53;;;;;;;26.02;13.23;;;32.60;49.60;;;;;;5009312;28;20033;-66
2021/07/15 07:25:19;;;;;;;28.67;15.18;;;32.60;49.40;;;;;;5009964;28;20040;-65
2021/07/15 07:27:45;;;;;;;20.92;13.13;;;32.50;49.40;;;;;;5009045;28;20045;-65
2021/07/15 07:30:14;;;;;;;24.95;14.63;;;32.50;50.50;;;;;;5005455;28;20033;-65
2021/07/15 07:32:40;;;;;;;22.83;13.63;;;32.40;50.60;;;;;;5003611;28;20052;-66
2021/07/15 07:35:07;;;;;;;20.42;13.65;;;32.40;51.50;;;;;;4999974;28;20033;-64
2021/07/15 07:37:33;;;;;;;19.75;13.88;;;32.40;52.30;;;;;;5019504;28;20033;-65
2021/07/15 07:40:00;;;;;;;22.50;13.40;;;32.30;53.00;;;;;;5012185;28;20060;-64
2021/07/15 07:42:26;;;;;;;16.00;10.57;;;32.30;53.00;;;;;;5015103;28;20405;-64
2021/07/15 07:44:51;;;;;;;21.75;12.90;;;32.30;53.50;;;;;;5016993;28;20025;-65
2021/07/15 07:47:17;;;;;;;24.67;15.55;;;32.30;53.40;;;;;;5017196;28;20033;-64
2021/07/15 07:49:43;;;;;;;26.00;16.55;;;32.20;52.90;;;;;;5018168;28;20029;-64
2021/07/15 07:52:08;;;;;;;19.25;12.80;;;32.10;53.00;;;;;;5012994;28;20043;-64
2021/07/15 07:54:34;;;;;;;22.73;13.93;;;32.10;53.60;;;;;;5014192;28;20072;-65
2021/07/15 07:57:00;;;;;;;18.80;12.98;;;32.00;53.60;;;;;;5015060;28;20029;-64
2021/07/15 07:59:26;;;;;;;21.30;13.02;;;32.00;54.00;;;;;;5018648;28;20041;-64
2021/07/15 08:01:52;;;;;;;27.67;15.48;;;32.00;54.30;;;;;;5017849;28;20056;-64
2021/07/15 08:04:18;;;;;;;24.05;14.68;;;32.00;54.10;;;;;;5017472;28;20029;-64
2021/07/15 08:06:46;;;;;;;16.65;13.10;;;31.90;54.30;;;;;;5012887;28;20021;-65
2021/07/15 08:09:12;;;;;;;18.95;13.48;;;31.90;54.50;;;;;;5016868;28;20037;-64
2021/07/15 08:11:40;;;;;;;15.23;11.13;;;31.80;54.30;;;;;;5013628;28;20041;-67
2021/07/15 08:14:06;;;;;;;15.13;11.02;;;31.80;54.40;;;;;;5017105;28;20029;-65
2021/07/15 08:16:32;;;;;;;14.57;9.60;;;31.80;54.40;;;;;;5015010;28;20059;-66
2021/07/15 08:18:58;;;;;;;12.95;8.95;;;31.70;54.80;;;;;;5007837;28;20049;-64
2021/07/15 08:21:26;;;;;;;10.95;7.85;;;31.70;54.90;;;;;;5002383;28;20417;-65
2021/07/15 08:23:52;;;;;;;11.50;7.50;;;31.70;55.00;;;;;;5008915;28;20029;-65
2021/07/15 08:26:18;;;;;;;11.70;7.20;;;31.70;55.60;;;;;;5012455;28;20033;-65
2021/07/15 08:28:44;;;;;;;12.15;6.20;;;31.70;54.60;;;;;;5009836;28;20029;-66
2021/07/15 08:31:10;;;;;;;8.77;6.22;;;31.60;54.00;;;;;;5004369;28;20095;-65
2021/07/15 08:33:35;;;;;;;8.00;5.70;;;31.60;53.90;;;;;;5013033;28;20041;-66
2021/07/15 08:36:01;;;;;;;7.88;5.85;;;31.60;54.40;;;;;;5008897;28;20195;-65
2021/07/15 08:38:27;;;;;;;8.77;5.90;;;31.50;54.20;;;;;;5013154;28;20029;-64
2021/07/15 08:40:53;;;;;;;7.55;5.13;;;31.50;54.30;;;;;;5021428;28;20053;-64
2021/07/15 08:43:19;;;;;;;7.80;4.88;;;31.50;54.30;;;;;;5017343;28;20021;-63
2021/07/15 08:45:45;;;;;;;8.15;4.75;;;31.50;54.30;;;;;;5011609;28;20103;-63
2021/07/15 08:48:12;;;;;;;6.43;4.18;;;31.40;54.30;;;;;;5010566;28;20013;-65
2021/07/15 08:50:40;;;;;;;7.28;4.57;;;31.40;53.70;;;;;;5011623;28;20452;-65
2021/07/15 08:53:06;;;;;;;8.63;4.00;;;31.40;53.40;;;;;;5016579;28;20037;-65
2021/07/15 08:58:19;;;;;;;4.07;3.28;;;31.40;53.80;;;;;;5009999;28;20044;-64
2021/07/15 09:00:47;;;;;;;4.95;3.40;;;31.30;53.80;;;;;;5007967;28;20457;-64
2021/07/15 09:03:13;;;;;;;5.70;3.25;;;31.30;53.10;;;;;;5011170;28;20040;-63
2021/07/15 09:05:42;;;;;;;4.43;3.45;;;31.30;53.20;;;;;;5016665;28;20036;-64
2021/07/15 09:08:08;;;;;;;4.40;3.60;;;31.20;53.10;;;;;;5020262;28;20649;-63
2021/07/15 09:10:34;;;;;;;5.55;3.70;;;31.20;53.50;;;;;;5015897;28;20026;-64
2021/07/15 09:13:03;;;;;;;6.85;3.50;;;31.20;53.10;;;;;;5017375;28;20418;-63
2021/07/15 09:15:29;;;;;;;7.07;3.50;;;31.20;52.80;;;;;;5021386;28;20942;-64
2021/07/15 09:17:55;;;;;;;6.35;3.50;;;31.20;52.00;;;;;;5014730;28;20064;-66
2021/07/15 09:20:28;;;;;;;5.47;3.22;;;31.20;52.50;;;;;;5013030;28;20052;-65
2021/07/15 09:23:03;;;;;;;4.82;3.22;;;31.20;52.30;;;;;;5012240;28;20065;-64
2021/07/15 09:25:37;;;;;;;4.47;2.95;;;31.20;52.80;;;;;;5018130;28;20626;-65
2021/07/15 09:28:10;;;;;;;5.85;3.63;;;31.10;52.80;;;;;;5015307;28;20060;-65
2021/07/15 09:30:36;;;;;;;5.72;4.05;;;31.10;53.20;;;;;;5010732;28;21003;-64
2021/07/15 09:33:08;;;;;;;6.50;3.35;;;31.10;53.20;;;;;;5006383;28;20060;-64
2021/07/15 09:35:41;;;;;;;5.35;3.40;;;31.10;53.90;;;;;;5011728;28;20037;-63
2021/07/15 09:38:15;;;;;;;8.35;3.80;;;31.00;53.90;;;;;;5010394;28;20056;-63
2021/07/15 09:40:46;;;;;;;5.18;3.20;;;31.10;54.00;;;;;;5014988;28;20083;-63
2021/07/15 09:43:18;;;;;;;4.57;3.38;;;31.00;53.90;;;;;;5010057;28;20104;-64
2021/07/15 09:45:45;;;;;;;5.50;3.20;;;31.00;53.70;;;;;;5008787;28;20385;-64
2021/07/15 09:48:19;;;;;;;4.72;3.17;;;31.00;54.00;;;;;;5010218;28;21687;-63
2021/07/15 09:50:47;;;;;;;5.18;3.35;;;30.90;54.20;;;;;;5014504;28;21152;-64
2021/07/15 09:53:23;;;;;;;3.88;3.22;;;30.90;54.00;;;;;;5010170;28;20034;-64
2021/07/15 09:56:02;;;;;;;4.63;3.28;;;30.90;54.10;;;;;;5010876;28;20030;-66
2021/07/15 09:58:36;;;;;;;4.03;3.00;;;30.80;54.10;;;;;;5008888;28;20119;-64
2021/07/15 10:01:07;;;;;;;5.47;3.17;;;30.80;54.10;;;;;;5010471;28;20036;-64
2021/07/15 10:03:38;;;;;;;4.18;3.15;;;30.80;53.80;;;;;;5000186;28;20033;-64
2021/07/15 10:06:05;;;;;;;4.82;3.30;;;30.80;54.10;;;;;;5010157;28;20030;-63
2021/07/15 10:08:33;;;;;;;6.65;3.47;;;30.80;53.90;;;;;;5013694;28;20026;-62
2021/07/15 10:11:22;;;;;;;4.68;2.97;;;30.80;54.30;;;;;;5014446;28;20022;-61
2021/07/15 10:14:07;;;;;;;5.85;3.38;;;30.80;54.60;;;;;;5017701;28;20034;-63
2021/07/15 10:16:42;;;;;;;4.63;3.40;;;30.80;54.60;;;;;;5013242;28;20152;-62
2021/07/15 10:19:16;;;;;;;6.93;3.30;;;30.70;54.80;;;;;;5010116;28;20122;-62
2021/07/15 10:21:42;;;;;;;6.35;3.28;;;30.70;54.90;;;;;;5013326;28;20033;-63
2021/07/15 10:24:23;;;;;;;3.78;2.80;;;30.70;54.60;;;;;;5009859;28;20126;-62
2021/07/15 10:26:51;;;;;;;5.05;2.72;;;30.70;54.80;;;;;;5007591;28;20068;-62
2021/07/15 10:29:18;;;;;;;5.30;3.00;;;30.70;54.60;;;;;;5007935;28;20059;-63
2021/07/15 10:31:46;;;;;;;4.53;2.95;;;30.60;54.20;;;;;;5018809;28;20030;-63
2021/07/15 10:34:12;;;;;;;4.70;2.80;;;30.60;54.30;;;;;;5008654;28;21841;-62
2021/07/15 10:36:39;;;;;;;6.15;3.33;;;30.60;54.20;;;;;;5011910;28;20025;-62
2021/07/15 10:39:10;;;;;;;5.60;3.00;;;30.60;54.30;;;;;;5011152;28;20053;-62
2021/07/15 10:41:41;;;;;;;4.38;2.60;;;30.60;53.90;;;;;;5009560;28;20037;-62
2021/07/15 10:44:08;;;;;;;5.97;2.83;;;30.60;53.90;;;;;;5013871;28;20024;-63
2021/07/15 10:46:36;;;;;;;3.17;2.80;;;30.50;53.90;;;;;;5010645;28;20684;-62
2021/07/15 10:49:01;;;;;;;3.53;2.55;;;30.50;53.90;;;;;;5010709;28;20017;-63
2021/07/15 10:51:27;;;;;;;3.53;3.00;;;30.50;54.20;;;;;;5007566;28;20029;-62
2021/07/15 10:53:54;;;;;;;2.97;2.67;;;30.50;54.60;;;;;;5005580;28;20034;-63
2021/07/15 10:56:20;;;;;;;3.83;2.70;;;30.50;54.50;;;;;;5012107;28;20127;-63
2021/07/15 10:58:53;;;;;;;6.18;3.13;;;30.50;54.60;;;;;;5010218;28;20113;-64
2021/07/15 11:01:40;;;;;;;2.90;2.60;;;30.50;54.60;;;;;;4996937;28;20045;-63
2021/07/15 11:04:07;;;;;;;4.15;2.78;;;30.50;54.70;;;;;;5005920;28;20441;-64
2021/07/15 11:06:43;;;;;;;4.45;2.70;;;30.50;55.00;;;;;;5010475;28;20029;-63
2021/07/15 11:09:11;;;;;;;5.72;3.63;;;30.50;55.00;;;;;;5013384;28;20565;-64
2021/07/15 11:11:44;;;;;;;4.88;2.75;;;30.50;54.80;;;;;;5015732;28;20346;-63
2021/07/15 11:14:33;;;;;;;6.90;3.35;;;30.50;54.50;;;;;;5016710;28;20125;-64
2021/07/15 11:16:59;;;;;;;3.70;2.72;;;30.50;54.30;;;;;;5009447;28;20120;-64
2021/07/15 11:19:58;;;;;;;3.50;2.92;;;30.50;53.90;;;;;;5008360;28;20049;-63
2021/07/15 11:22:39;;;;;;;3.75;2.60;;;30.50;53.90;;;;;;5012844;28;20033;-64
2021/07/15 11:25:15;;;;;;;3.72;2.80;;;30.50;54.00;;;;;;5009621;28;20047;-64
2021/07/15 11:27:49;;;;;;;4.97;2.78;;;30.40;53.70;;;;;;5010612;28;20037;-64
2021/07/15 11:30:40;;;;;;;3.72;3.05;;;30.50;54.20;;;;;;5009485;28;20030;-64
2021/07/15 11:33:18;;;;;;;3.20;2.60;;;30.40;54.30;;;;;;5006100;28;20037;-64
2021/07/15 11:36:07;;;;;;;3.47;2.58;;;30.50;54.10;;;;;;5009617;28;20037;-64
2021/07/15 11:38:40;;;;;;;5.05;3.75;;;30.50;53.80;;;;;;5012511;28;20038;-63
2021/07/15 11:41:14;;;;;;;4.25;3.00;;;30.50;53.90;;;;;;5006181;28;20037;-64
2021/07/15 11:43:56;;;;;;;5.30;2.90;;;30.50;53.40;;;;;;5012216;28;20029;-65
2021/07/15 11:46:24;;;;;;;3.55;2.78;;;30.50;53.40;;;;;;5005957;28;20033;-66
2021/07/15 11:49:01;;;;;;;3.95;3.00;;;30.50;53.10;;;;;;5010090;28;20029;-65
2021/07/15 11:51:30;;;;;;;3.20;2.85;;;30.50;53.60;;;;;;5005681;28;20107;-64
2021/07/15 11:54:20;;;;;;;3.75;2.80;;;30.50;54.00;;;;;;5009142;28;20033;-64
2021/07/15 11:56:49;;;;;;;;;;;30.40;54.20;;;;;;5013475;28;20065;-64
2021/07/15 11:59:42;;;;;;;4.68;3.03;;;30.40;53.70;;;;;;5004223;28;19962;-65
2021/07/15 12:02:19;;;;;;;5.57;3.50;;;30.40;53.30;;;;;;5012035;28;20056;-64
2021/07/15 12:05:13;;;;;;;7.00;3.35;;;30.40;53.40;;;;;;5013591;28;20126;-63
2021/07/15 12:07:47;;;;;;;3.40;3.10;;;30.40;53.30;;;;;;5011284;28;20118;-64
2021/07/15 12:10:25;;;;;;;5.15;3.60;;;30.40;53.60;;;;;;5007419;28;20509;-64
2021/07/15 12:12:51;;;;;;;4.15;3.03;;;30.40;53.20;;;;;;5018835;28;20035;-65
2021/07/15 12:15:20;;;;;;;4.35;3.25;;;30.40;53.00;;;;;;5012076;28;20037;-62
2021/07/15 12:17:49;;;;;;;4.80;3.20;;;30.40;53.00;;;;;;5016590;28;20045;-63
2021/07/15 12:20:17;;;;;;;4.07;3.17;;;30.40;52.60;;;;;;5007442;28;20568;-62
2021/07/15 12:22:57;;;;;;;3.92;3.03;;;30.40;52.00;;;;;;5016820;28;20121;-64
2021/07/15 12:25:22;;;;;;;3.35;3.05;;;30.40;52.20;;;;;;5007468;28;20091;-62
2021/07/15 12:27:52;;;;;;;4.20;2.97;;;30.40;52.30;;;;;;5005099;28;20029;-64
2021/07/15 12:30:20;;;;;;;4.57;3.30;;;30.40;52.20;;;;;;5007252;28;20041;-65
2021/07/15 12:32:54;;;;;;;3.10;2.80;;;30.40;52.10;;;;;;5006094;28;20059;-62
2021/07/15 12:35:20;;;;;;;3.72;2.70;;;30.50;51.90;;;;;;5007491;28;20039;-64
2021/07/15 12:37:46;;;;;;;4.18;3.08;;;30.40;52.20;;;;;;5008622;28;20034;-63
2021/07/15 12:40:12;;;;;;;3.22;2.92;;;30.40;52.00;;;;;;5011187;28;20115;-64
2021/07/15 12:42:37;;;;;;;3.55;2.95;;;30.40;51.70;;;;;;5007386;28;20072;-63
2021/07/15 12:45:18;;;;;;;3.35;2.75;;;30.40;51.60;;;;;;5019769;28;20494;-62
2021/07/15 12:48:02;;;;;;;3.60;3.03;;;30.40;51.10;;;;;;5009961;28;20412;-62
2021/07/15 12:50:29;;;;;;;4.53;3.05;;;30.40;51.10;;;;;;5011999;28;20026;-63
2021/07/15 12:53:09;;;;;;;3.78;3.22;;;30.40;51.00;;;;;;5008082;28;20148;-63
2021/07/15 12:55:35;;;;;;;;;;;30.50;51.10;;;;;;5013402;28;20903;-63
2021/07/15 12:58:01;;;;;;;4.13;2.55;;;30.40;51.30;;;;;;5021920;28;19916;-64
2021/07/15 13:00:34;;;;;;;4.28;2.88;;;30.40;51.00;;;;;;5001736;28;20088;-64